sensor_id;sensor_type;location;lat;lon;timestamp;temperature;humidity
64396;DHT22;50717;53.360;6.290;2023-05-13T00:01:12;12.30;99.90
64396;DHT22;50717;53.360;6.290;2023-05-13T00:03:37;12.30;99.90
64396;DHT22;50717;53.360;6.290;2023-05-13T00:06:03;12.10;99.90
64396;DHT22;50717;53.360;6.290;2023-05-13T00:08:28;12.40;99.90
64396;DHT22;50717;53.360;6.290;2023-05-13T00:10:54;12.20;99.90
64396;DHT22;50717;53.360;6.290;2023-05-13T00:13:20;12.30;99.90
64396;DHT22;50717;53.360;6.290;2023-05-13T00:15:45;12.70;99.90
64396;DHT22;50717;53.360;6.290;2023-05-13T00:18:11;12.60;99.90
64396;DHT22;50717;53.360;6.290;2023-05-13T00:20:37;12.00;99.90
64396;DHT22;50717;53.360;6.290;2023-05-13T00:23:02;12.20;99.90
64396;DHT22;50717;53.360;6.290;2023-05-13T00:25:28;12.30;99.90
64396;DHT22;50717;53.360;6.290;2023-05-13T00:27:54;12.30;99.90
64396;DHT22;50717;53.360;6.290;2023-05-13T00:30:19;12.50;99.90
64396;DHT22;50717;53.360;6.290;2023-05-13T00:32:45;12.20;99.90
64396;DHT22;50717;53.360;6.290;2023-05-13T00:35:11;12.50;99.90
64396;DHT22;50717;53.360;6.290;2023-05-13T00:37:37;12.00;99.90
64396;DHT22;50717;53.360;6.290;2023-05-13T00:40:03;12.50;99.90
64396;DHT22;50717;53.360;6.290;2023-05-13T00:42:28;12.40;99.90
64396;DHT22;50717;53.360;6.290;2023-05-13T00:44:54;12.00;99.90
64396;DHT22;50717;53.360;6.290;2023-05-13T00:47:20;12.30;99.90
64396;DHT22;50717;53.360;6.290;2023-05-13T00:49:46;12.10;99.90
64396;DHT22;50717;53.360;6.290;2023-05-13T00:52:12;11.90;99.90
64396;DHT22;50717;53.360;6.290;2023-05-13T00:54:38;12.40;99.90
64396;DHT22;50717;53.360;6.290;2023-05-13T00:57:04;12.10;99.90
64396;DHT22;50717;53.360;6.290;2023-05-13T00:59:30;12.00;99.90
64396;DHT22;50717;53.360;6.290;2023-05-13T01:04:40;11.70;99.90
64396;DHT22;50717;53.360;6.290;2023-05-13T01:07:08;12.10;99.90
64396;DHT22;50717;53.360;6.290;2023-05-13T01:09:47;12.20;99.90
64396;DHT22;50717;53.360;6.290;2023-05-13T01:12:35;12.00;99.90
64396;DHT22;50717;53.360;6.290;2023-05-13T01:15:23;12.30;99.90
64396;DHT22;50717;53.360;6.290;2023-05-13T01:17:54;12.00;99.90
64396;DHT22;50717;53.360;6.290;2023-05-13T01:20:23;12.00;99.90
64396;DHT22;50717;53.360;6.290;2023-05-13T01:22:49;11.90;99.90
64396;DHT22;50717;53.360;6.290;2023-05-13T01:25:15;11.90;99.90
64396;DHT22;50717;53.360;6.290;2023-05-13T01:27:40;12.10;99.90
64396;DHT22;50717;53.360;6.290;2023-05-13T01:30:08;12.00;99.90
64396;DHT22;50717;53.360;6.290;2023-05-13T01:32:34;12.10;99.90
64396;DHT22;50717;53.360;6.290;2023-05-13T01:35:02;11.80;99.90
64396;DHT22;50717;53.360;6.290;2023-05-13T01:37:28;12.10;99.90
64396;DHT22;50717;53.360;6.290;2023-05-13T01:39:54;11.90;99.90
64396;DHT22;50717;53.360;6.290;2023-05-13T01:42:22;11.90;99.90
64396;DHT22;50717;53.360;6.290;2023-05-13T01:44:50;11.70;99.90
64396;DHT22;50717;53.360;6.290;2023-05-13T01:47:16;11.90;99.90
64396;DHT22;50717;53.360;6.290;2023-05-13T01:49:42;12.00;99.90
64396;DHT22;50717;53.360;6.290;2023-05-13T01:52:07;12.00;99.90
64396;DHT22;50717;53.360;6.290;2023-05-13T01:54:33;11.80;99.90
64396;DHT22;50717;53.360;6.290;2023-05-13T01:56:59;11.80;99.90
64396;DHT22;50717;53.360;6.290;2023-05-13T01:59:24;11.50;99.90
64396;DHT22;50717;53.360;6.290;2023-05-13T02:01:50;11.90;99.90
64396;DHT22;50717;53.360;6.290;2023-05-13T02:04:16;11.70;99.90
64396;DHT22;50717;53.360;6.290;2023-05-13T02:06:42;11.80;99.90
64396;DHT22;50717;53.360;6.290;2023-05-13T02:09:07;11.30;99.90
64396;DHT22;50717;53.360;6.290;2023-05-13T02:11:33;11.80;99.90
64396;DHT22;50717;53.360;6.290;2023-05-13T02:14:00;11.90;99.90
64396;DHT22;50717;53.360;6.290;2023-05-13T02:16:25;11.60;99.90
64396;DHT22;50717;53.360;6.290;2023-05-13T02:18:51;11.80;99.90
64396;DHT22;50717;53.360;6.290;2023-05-13T02:21:17;11.50;99.90
64396;DHT22;50717;53.360;6.290;2023-05-13T02:23:42;11.50;99.90
64396;DHT22;50717;53.360;6.290;2023-05-13T02:26:08;11.30;99.90
64396;DHT22;50717;53.360;6.290;2023-05-13T02:28:34;11.80;99.90
64396;DHT22;50717;53.360;6.290;2023-05-13T02:31:00;11.30;99.90
64396;DHT22;50717;53.360;6.290;2023-05-13T02:33:26;11.40;99.90
64396;DHT22;50717;53.360;6.290;2023-05-13T02:35:51;11.70;99.90
64396;DHT22;50717;53.360;6.290;2023-05-13T02:38:17;11.60;99.90
64396;DHT22;50717;53.360;6.290;2023-05-13T02:40:43;11.70;99.90
64396;DHT22;50717;53.360;6.290;2023-05-13T02:43:08;11.60;99.90
64396;DHT22;50717;53.360;6.290;2023-05-13T02:45:34;12.00;99.90
64396;DHT22;50717;53.360;6.290;2023-05-13T02:48:00;11.40;99.90
64396;DHT22;50717;53.360;6.290;2023-05-13T02:50:25;11.60;99.90
64396;DHT22;50717;53.360;6.290;2023-05-13T02:52:51;12.20;99.90
64396;DHT22;50717;53.360;6.290;2023-05-13T02:55:17;11.50;99.90
64396;DHT22;50717;53.360;6.290;2023-05-13T02:57:43;11.80;99.90
64396;DHT22;50717;53.360;6.290;2023-05-13T03:00:09;12.00;99.90
64396;DHT22;50717;53.360;6.290;2023-05-13T03:02:36;11.30;99.90
64396;DHT22;50717;53.360;6.290;2023-05-13T03:05:02;11.60;99.90
64396;DHT22;50717;53.360;6.290;2023-05-13T03:07:28;11.80;99.90
64396;DHT22;50717;53.360;6.290;2023-05-13T03:09:53;11.50;99.90
64396;DHT22;50717;53.360;6.290;2023-05-13T03:12:19;11.50;99.90
64396;DHT22;50717;53.360;6.290;2023-05-13T03:14:46;11.60;99.90
64396;DHT22;50717;53.360;6.290;2023-05-13T03:17:12;11.50;99.90
64396;DHT22;50717;53.360;6.290;2023-05-13T03:19:38;11.50;99.90
64396;DHT22;50717;53.360;6.290;2023-05-13T03:22:05;11.60;99.90
64396;DHT22;50717;53.360;6.290;2023-05-13T03:24:30;11.50;99.90
64396;DHT22;50717;53.360;6.290;2023-05-13T03:26:57;11.60;99.90
64396;DHT22;50717;53.360;6.290;2023-05-13T03:29:22;11.70;99.90
64396;DHT22;50717;53.360;6.290;2023-05-13T03:31:48;11.40;99.90
64396;DHT22;50717;53.360;6.290;2023-05-13T03:34:14;11.50;99.90
64396;DHT22;50717;53.360;6.290;2023-05-13T03:36:40;11.70;99.90
64396;DHT22;50717;53.360;6.290;2023-05-13T03:39:06;11.50;99.90
64396;DHT22;50717;53.360;6.290;2023-05-13T03:41:32;11.10;99.90
64396;DHT22;50717;53.360;6.290;2023-05-13T03:43:58;11.30;99.90
64396;DHT22;50717;53.360;6.290;2023-05-13T03:46:23;11.30;99.90
64396;DHT22;50717;53.360;6.290;2023-05-13T03:48:52;11.10;99.90
64396;DHT22;50717;53.360;6.290;2023-05-13T03:51:18;11.20;99.90
64396;DHT22;50717;53.360;6.290;2023-05-13T03:53:43;11.50;99.90
64396;DHT22;50717;53.360;6.290;2023-05-13T03:56:09;11.50;99.90
64396;DHT22;50717;53.360;6.290;2023-05-13T03:58:35;11.70;99.90
64396;DHT22;50717;53.360;6.290;2023-05-13T04:01:01;11.20;99.90
64396;DHT22;50717;53.360;6.290;2023-05-13T04:03:27;11.60;99.90
64396;DHT22;50717;53.360;6.290;2023-05-13T04:05:52;11.60;99.90
64396;DHT22;50717;53.360;6.290;2023-05-13T04:08:18;11.00;99.90
64396;DHT22;50717;53.360;6.290;2023-05-13T04:10:44;11.70;99.90
64396;DHT22;50717;53.360;6.290;2023-05-13T04:13:10;11.60;99.90
64396;DHT22;50717;53.360;6.290;2023-05-13T04:15:36;11.50;99.90
64396;DHT22;50717;53.360;6.290;2023-05-13T04:18:01;11.60;99.90
64396;DHT22;50717;53.360;6.290;2023-05-13T04:20:27;11.80;99.90
64396;DHT22;50717;53.360;6.290;2023-05-13T04:22:53;11.90;99.90
64396;DHT22;50717;53.360;6.290;2023-05-13T04:25:19;11.50;99.90
64396;DHT22;50717;53.360;6.290;2023-05-13T04:27:45;11.60;99.90
64396;DHT22;50717;53.360;6.290;2023-05-13T04:30:12;11.70;99.90
64396;DHT22;50717;53.360;6.290;2023-05-13T04:32:38;12.00;99.90
64396;DHT22;50717;53.360;6.290;2023-05-13T04:35:06;11.60;99.90
64396;DHT22;50717;53.360;6.290;2023-05-13T04:37:32;12.10;99.90
64396;DHT22;50717;53.360;6.290;2023-05-13T04:39:58;12.10;99.90
64396;DHT22;50717;53.360;6.290;2023-05-13T04:42:24;11.60;99.90
64396;DHT22;50717;53.360;6.290;2023-05-13T04:44:49;11.70;99.90
64396;DHT22;50717;53.360;6.290;2023-05-13T04:47:15;11.70;99.90
64396;DHT22;50717;53.360;6.290;2023-05-13T04:49:41;11.60;99.90
64396;DHT22;50717;53.360;6.290;2023-05-13T04:52:07;11.70;99.90
64396;DHT22;50717;53.360;6.290;2023-05-13T04:54:33;12.10;99.90
64396;DHT22;50717;53.360;6.290;2023-05-13T04:57:01;12.10;99.90
64396;DHT22;50717;53.360;6.290;2023-05-13T04:59:26;12.50;99.90
64396;DHT22;50717;53.360;6.290;2023-05-13T05:01:52;12.50;99.90
64396;DHT22;50717;53.360;6.290;2023-05-13T05:04:19;12.40;99.90
64396;DHT22;50717;53.360;6.290;2023-05-13T05:06:45;12.50;99.90
64396;DHT22;50717;53.360;6.290;2023-05-13T05:09:10;12.00;99.90
64396;DHT22;50717;53.360;6.290;2023-05-13T05:11:37;11.80;99.90
64396;DHT22;50717;53.360;6.290;2023-05-13T05:14:03;12.70;99.90
64396;DHT22;50717;53.360;6.290;2023-05-13T05:16:28;12.30;99.90
64396;DHT22;50717;53.360;6.290;2023-05-13T05:18:54;12.70;99.90
64396;DHT22;50717;53.360;6.290;2023-05-13T05:21:19;12.60;99.90
64396;DHT22;50717;53.360;6.290;2023-05-13T05:23:45;12.50;99.90
64396;DHT22;50717;53.360;6.290;2023-05-13T05:26:11;12.60;99.90
64396;DHT22;50717;53.360;6.290;2023-05-13T05:28:37;12.90;99.90
64396;DHT22;50717;53.360;6.290;2023-05-13T05:31:04;13.00;99.90
64396;DHT22;50717;53.360;6.290;2023-05-13T05:33:30;12.50;99.90
64396;DHT22;50717;53.360;6.290;2023-05-13T05:35:56;12.70;99.90
64396;DHT22;50717;53.360;6.290;2023-05-13T05:38:22;12.80;99.90
64396;DHT22;50717;53.360;6.290;2023-05-13T05:40:51;12.60;99.90
64396;DHT22;50717;53.360;6.290;2023-05-13T05:43:16;13.00;99.90
64396;DHT22;50717;53.360;6.290;2023-05-13T05:45:42;13.00;99.90
64396;DHT22;50717;53.360;6.290;2023-05-13T05:48:08;12.80;99.90
64396;DHT22;50717;53.360;6.290;2023-05-13T05:50:34;13.40;99.90
64396;DHT22;50717;53.360;6.290;2023-05-13T05:53:01;13.20;99.90
64396;DHT22;50717;53.360;6.290;2023-05-13T05:55:26;13.10;99.90
64396;DHT22;50717;53.360;6.290;2023-05-13T05:57:53;13.20;99.90
64396;DHT22;50717;53.360;6.290;2023-05-13T06:00:19;13.50;99.90
64396;DHT22;50717;53.360;6.290;2023-05-13T06:02:45;13.40;99.90
64396;DHT22;50717;53.360;6.290;2023-05-13T06:05:11;13.30;99.90
64396;DHT22;50717;53.360;6.290;2023-05-13T06:07:36;14.70;99.90
64396;DHT22;50717;53.360;6.290;2023-05-13T06:10:02;13.80;99.90
64396;DHT22;50717;53.360;6.290;2023-05-13T06:12:28;13.70;99.90
64396;DHT22;50717;53.360;6.290;2023-05-13T06:14:54;13.90;99.90
64396;DHT22;50717;53.360;6.290;2023-05-13T06:17:20;13.70;99.90
64396;DHT22;50717;53.360;6.290;2023-05-13T06:19:45;13.90;99.90
64396;DHT22;50717;53.360;6.290;2023-05-13T06:22:11;14.00;99.90
64396;DHT22;50717;53.360;6.290;2023-05-13T06:24:37;13.70;99.90
64396;DHT22;50717;53.360;6.290;2023-05-13T06:27:10;14.00;99.90
64396;DHT22;50717;53.360;6.290;2023-05-13T06:29:39;14.10;99.90
64396;DHT22;50717;53.360;6.290;2023-05-13T06:32:05;14.20;99.90
64396;DHT22;50717;53.360;6.290;2023-05-13T06:34:31;14.40;99.90
64396;DHT22;50717;53.360;6.290;2023-05-13T06:36:57;14.30;99.90
64396;DHT22;50717;53.360;6.290;2023-05-13T06:39:23;14.60;99.90
64396;DHT22;50717;53.360;6.290;2023-05-13T06:41:48;14.40;99.90
64396;DHT22;50717;53.360;6.290;2023-05-13T06:44:14;14.30;99.90
64396;DHT22;50717;53.360;6.290;2023-05-13T06:46:39;14.70;99.90
64396;DHT22;50717;53.360;6.290;2023-05-13T06:49:05;14.70;99.90
64396;DHT22;50717;53.360;6.290;2023-05-13T06:51:31;14.90;99.90
64396;DHT22;50717;53.360;6.290;2023-05-13T06:53:57;14.50;99.90
64396;DHT22;50717;53.360;6.290;2023-05-13T06:56:23;14.90;99.90
64396;DHT22;50717;53.360;6.290;2023-05-13T06:58:51;15.10;99.90
64396;DHT22;50717;53.360;6.290;2023-05-13T07:01:17;14.60;99.90
64396;DHT22;50717;53.360;6.290;2023-05-13T07:03:43;15.10;99.90
64396;DHT22;50717;53.360;6.290;2023-05-13T07:06:09;15.00;99.90
64396;DHT22;50717;53.360;6.290;2023-05-13T07:08:35;15.10;99.90
64396;DHT22;50717;53.360;6.290;2023-05-13T07:11:01;15.40;99.90
64396;DHT22;50717;53.360;6.290;2023-05-13T07:13:26;15.40;99.90
64396;DHT22;50717;53.360;6.290;2023-05-13T07:15:52;15.30;99.90
64396;DHT22;50717;53.360;6.290;2023-05-13T07:18:17;15.40;99.90
64396;DHT22;50717;53.360;6.290;2023-05-13T07:20:43;15.50;99.90
64396;DHT22;50717;53.360;6.290;2023-05-13T07:23:12;15.50;99.90
64396;DHT22;50717;53.360;6.290;2023-05-13T07:25:38;15.50;99.90
64396;DHT22;50717;53.360;6.290;2023-05-13T07:28:04;15.80;99.90
64396;DHT22;50717;53.360;6.290;2023-05-13T07:30:30;15.50;99.90
64396;DHT22;50717;53.360;6.290;2023-05-13T07:32:55;15.80;99.90
64396;DHT22;50717;53.360;6.290;2023-05-13T07:35:21;15.90;99.90
64396;DHT22;50717;53.360;6.290;2023-05-13T07:37:47;15.90;99.90
64396;DHT22;50717;53.360;6.290;2023-05-13T07:40:12;16.10;99.90
64396;DHT22;50717;53.360;6.290;2023-05-13T07:42:38;15.80;99.90
64396;DHT22;50717;53.360;6.290;2023-05-13T07:45:05;16.00;99.90
64396;DHT22;50717;53.360;6.290;2023-05-13T07:47:31;16.20;99.90
64396;DHT22;50717;53.360;6.290;2023-05-13T07:49:58;15.90;99.90
64396;DHT22;50717;53.360;6.290;2023-05-13T07:52:24;16.20;99.90
64396;DHT22;50717;53.360;6.290;2023-05-13T07:54:51;15.80;99.90
64396;DHT22;50717;53.360;6.290;2023-05-13T07:57:16;15.90;99.90
64396;DHT22;50717;53.360;6.290;2023-05-13T07:59:43;16.30;99.90
64396;DHT22;50717;53.360;6.290;2023-05-13T08:02:09;16.60;99.90
64396;DHT22;50717;53.360;6.290;2023-05-13T08:04:35;16.30;99.90
64396;DHT22;50717;53.360;6.290;2023-05-13T08:07:01;16.70;99.90
64396;DHT22;50717;53.360;6.290;2023-05-13T08:09:27;16.60;99.90
64396;DHT22;50717;53.360;6.290;2023-05-13T08:11:52;16.70;99.90
64396;DHT22;50717;53.360;6.290;2023-05-13T08:14:19;16.50;99.90
64396;DHT22;50717;53.360;6.290;2023-05-13T08:16:44;16.50;99.90
64396;DHT22;50717;53.360;6.290;2023-05-13T08:19:10;16.60;99.90
64396;DHT22;50717;53.360;6.290;2023-05-13T08:21:36;16.40;99.90
64396;DHT22;50717;53.360;6.290;2023-05-13T08:24:01;16.50;99.90
64396;DHT22;50717;53.360;6.290;2023-05-13T08:26:27;16.80;99.90
64396;DHT22;50717;53.360;6.290;2023-05-13T08:28:53;16.70;99.90
64396;DHT22;50717;53.360;6.290;2023-05-13T08:31:18;16.80;99.90
64396;DHT22;50717;53.360;6.290;2023-05-13T08:33:44;17.00;99.90
64396;DHT22;50717;53.360;6.290;2023-05-13T08:36:13;17.10;99.90
64396;DHT22;50717;53.360;6.290;2023-05-13T08:38:38;17.30;99.90
64396;DHT22;50717;53.360;6.290;2023-05-13T08:41:04;17.30;99.90
64396;DHT22;50717;53.360;6.290;2023-05-13T08:43:31;17.50;99.90
64396;DHT22;50717;53.360;6.290;2023-05-13T08:46:01;17.70;99.90
64396;DHT22;50717;53.360;6.290;2023-05-13T08:48:28;17.40;99.90
64396;DHT22;50717;53.360;6.290;2023-05-13T08:50:54;17.50;99.90
64396;DHT22;50717;53.360;6.290;2023-05-13T08:53:21;17.40;99.90
64396;DHT22;50717;53.360;6.290;2023-05-13T08:55:49;17.50;99.90
64396;DHT22;50717;53.360;6.290;2023-05-13T08:58:15;17.20;99.90
64396;DHT22;50717;53.360;6.290;2023-05-13T09:00:41;16.80;99.90
64396;DHT22;50717;53.360;6.290;2023-05-13T09:03:07;16.80;99.90
64396;DHT22;50717;53.360;6.290;2023-05-13T09:05:34;16.80;99.90
64396;DHT22;50717;53.360;6.290;2023-05-13T09:08:04;16.90;99.90
64396;DHT22;50717;53.360;6.290;2023-05-13T09:10:31;17.50;99.90
64396;DHT22;50717;53.360;6.290;2023-05-13T09:12:57;17.50;99.90
64396;DHT22;50717;53.360;6.290;2023-05-13T09:15:25;17.40;99.90
64396;DHT22;50717;53.360;6.290;2023-05-13T09:18:02;17.60;99.90
64396;DHT22;50717;53.360;6.290;2023-05-13T09:20:29;17.70;99.90
64396;DHT22;50717;53.360;6.290;2023-05-13T09:23:09;18.00;99.90
64396;DHT22;50717;53.360;6.290;2023-05-13T09:25:38;18.10;99.90
64396;DHT22;50717;53.360;6.290;2023-05-13T09:28:05;18.00;99.90
64396;DHT22;50717;53.360;6.290;2023-05-13T09:30:37;17.90;99.90
64396;DHT22;50717;53.360;6.290;2023-05-13T09:33:15;18.10;99.90
64396;DHT22;50717;53.360;6.290;2023-05-13T09:35:52;17.80;99.90
64396;DHT22;50717;53.360;6.290;2023-05-13T09:38:19;17.90;99.90
64396;DHT22;50717;53.360;6.290;2023-05-13T09:41:05;17.80;99.90
64396;DHT22;50717;53.360;6.290;2023-05-13T09:43:31;18.50;99.90
64396;DHT22;50717;53.360;6.290;2023-05-13T09:46:01;18.40;99.90
64396;DHT22;50717;53.360;6.290;2023-05-13T09:48:29;18.40;99.90
64396;DHT22;50717;53.360;6.290;2023-05-13T09:50:56;18.50;99.90
64396;DHT22;50717;53.360;6.290;2023-05-13T09:53:23;18.30;99.90
64396;DHT22;50717;53.360;6.290;2023-05-13T09:55:55;18.00;99.90
64396;DHT22;50717;53.360;6.290;2023-05-13T09:58:22;18.20;99.90
64396;DHT22;50717;53.360;6.290;2023-05-13T10:00:50;18.20;99.90
64396;DHT22;50717;53.360;6.290;2023-05-13T10:03:16;18.30;99.90
64396;DHT22;50717;53.360;6.290;2023-05-13T10:05:42;18.30;99.90
64396;DHT22;50717;53.360;6.290;2023-05-13T10:08:09;18.10;99.90
64396;DHT22;50717;53.360;6.290;2023-05-13T10:10:36;18.30;99.90
64396;DHT22;50717;53.360;6.290;2023-05-13T10:13:04;18.30;99.90
64396;DHT22;50717;53.360;6.290;2023-05-13T10:15:32;18.70;99.90
64396;DHT22;50717;53.360;6.290;2023-05-13T10:17:58;18.60;99.90
64396;DHT22;50717;53.360;6.290;2023-05-13T10:20:24;18.60;99.90
64396;DHT22;50717;53.360;6.290;2023-05-13T10:22:51;18.50;99.90
64396;DHT22;50717;53.360;6.290;2023-05-13T10:25:17;17.90;99.90
64396;DHT22;50717;53.360;6.290;2023-05-13T10:27:43;18.10;99.90
64396;DHT22;50717;53.360;6.290;2023-05-13T10:30:10;18.50;99.90
64396;DHT22;50717;53.360;6.290;2023-05-13T10:32:37;18.40;99.90
64396;DHT22;50717;53.360;6.290;2023-05-13T10:35:11;18.70;99.90
64396;DHT22;50717;53.360;6.290;2023-05-13T10:43:20;18.60;99.90
64396;DHT22;50717;53.360;6.290;2023-05-13T10:45:49;18.50;99.90
64396;DHT22;50717;53.360;6.290;2023-05-13T10:48:16;18.50;99.90
64396;DHT22;50717;53.360;6.290;2023-05-13T10:51:02;18.90;99.90
64396;DHT22;50717;53.360;6.290;2023-05-13T10:53:31;18.80;99.90
64396;DHT22;50717;53.360;6.290;2023-05-13T10:55:58;19.00;99.90
64396;DHT22;50717;53.360;6.290;2023-05-13T10:58:29;19.10;99.90
64396;DHT22;50717;53.360;6.290;2023-05-13T11:01:18;19.20;99.90
64396;DHT22;50717;53.360;6.290;2023-05-13T11:04:01;19.10;99.90
64396;DHT22;50717;53.360;6.290;2023-05-13T11:06:37;19.40;99.90
64396;DHT22;50717;53.360;6.290;2023-05-13T11:09:10;19.10;99.90
64396;DHT22;50717;53.360;6.290;2023-05-13T11:11:36;19.00;99.90
64396;DHT22;50717;53.360;6.290;2023-05-13T11:14:24;19.40;99.90
64396;DHT22;50717;53.360;6.290;2023-05-13T11:19:27;19.50;99.90
64396;DHT22;50717;53.360;6.290;2023-05-13T11:21:55;19.80;99.90
64396;DHT22;50717;53.360;6.290;2023-05-13T11:24:21;19.40;99.90
64396;DHT22;50717;53.360;6.290;2023-05-13T11:29:14;19.50;99.90
64396;DHT22;50717;53.360;6.290;2023-05-13T11:31:46;19.40;99.90
64396;DHT22;50717;53.360;6.290;2023-05-13T11:34:18;19.80;99.90
64396;DHT22;50717;53.360;6.290;2023-05-13T11:37:07;19.90;99.90
64396;DHT22;50717;53.360;6.290;2023-05-13T11:39:33;19.60;99.90
64396;DHT22;50717;53.360;6.290;2023-05-13T11:42:00;19.90;99.90
64396;DHT22;50717;53.360;6.290;2023-05-13T11:44:27;19.90;99.90
64396;DHT22;50717;53.360;6.290;2023-05-13T11:47:01;20.30;99.90
64396;DHT22;50717;53.360;6.290;2023-05-13T11:49:43;19.80;99.90
64396;DHT22;50717;53.360;6.290;2023-05-13T11:52:11;19.80;99.90
64396;DHT22;50717;53.360;6.290;2023-05-13T11:57:20;19.90;99.90
64396;DHT22;50717;53.360;6.290;2023-05-13T11:59:50;20.20;99.90
64396;DHT22;50717;53.360;6.290;2023-05-13T12:02:20;19.90;99.90
64396;DHT22;50717;53.360;6.290;2023-05-13T12:04:46;20.10;99.90
64396;DHT22;50717;53.360;6.290;2023-05-13T12:07:12;20.30;99.90
64396;DHT22;50717;53.360;6.290;2023-05-13T12:09:38;19.90;99.90
64396;DHT22;50717;53.360;6.290;2023-05-13T12:12:05;19.90;99.90
64396;DHT22;50717;53.360;6.290;2023-05-13T12:14:31;19.80;99.90
64396;DHT22;50717;53.360;6.290;2023-05-13T12:16:57;19.90;99.90
64396;DHT22;50717;53.360;6.290;2023-05-13T12:19:23;19.70;99.90
64396;DHT22;50717;53.360;6.290;2023-05-13T12:21:49;19.50;99.90
64396;DHT22;50717;53.360;6.290;2023-05-13T12:24:25;19.90;99.90
64396;DHT22;50717;53.360;6.290;2023-05-13T12:26:51;20.00;99.90
64396;DHT22;50717;53.360;6.290;2023-05-13T12:29:18;19.90;99.90
64396;DHT22;50717;53.360;6.290;2023-05-13T12:32:03;19.70;99.90
64396;DHT22;50717;53.360;6.290;2023-05-13T12:34:33;19.90;99.90
64396;DHT22;50717;53.360;6.290;2023-05-13T12:37:11;19.70;99.90
64396;DHT22;50717;53.360;6.290;2023-05-13T12:39:41;20.00;99.90
64396;DHT22;50717;53.360;6.290;2023-05-13T12:42:17;20.00;99.90
64396;DHT22;50717;53.360;6.290;2023-05-13T12:44:44;19.80;99.90
64396;DHT22;50717;53.360;6.290;2023-05-13T12:47:10;19.80;99.90
64396;DHT22;50717;53.360;6.290;2023-05-13T12:49:58;19.70;99.90
64396;DHT22;50717;53.360;6.290;2023-05-13T12:52:23;19.50;99.90
64396;DHT22;50717;53.360;6.290;2023-05-13T12:54:49;19.60;99.90
64396;DHT22;50717;53.360;6.290;2023-05-13T12:57:18;20.00;99.90
64396;DHT22;50717;53.360;6.290;2023-05-13T12:59:45;20.00;99.90
64396;DHT22;50717;53.360;6.290;2023-05-13T13:02:14;20.00;99.90
64396;DHT22;50717;53.360;6.290;2023-05-13T13:04:39;20.00;99.90
64396;DHT22;50717;53.360;6.290;2023-05-13T13:07:05;20.20;99.90
64396;DHT22;50717;53.360;6.290;2023-05-13T13:09:37;20.20;99.90
64396;DHT22;50717;53.360;6.290;2023-05-13T13:12:02;20.20;99.90
64396;DHT22;50717;53.360;6.290;2023-05-13T13:14:28;20.10;99.90
64396;DHT22;50717;53.360;6.290;2023-05-13T13:16:54;20.00;99.90
64396;DHT22;50717;53.360;6.290;2023-05-13T13:19:19;20.00;99.90
64396;DHT22;50717;53.360;6.290;2023-05-13T13:21:45;19.60;99.90
64396;DHT22;50717;53.360;6.290;2023-05-13T13:24:11;20.00;99.90
64396;DHT22;50717;53.360;6.290;2023-05-13T13:26:36;19.90;99.90
64396;DHT22;50717;53.360;6.290;2023-05-13T13:29:02;19.60;99.90
64396;DHT22;50717;53.360;6.290;2023-05-13T13:31:28;19.90;99.90
64396;DHT22;50717;53.360;6.290;2023-05-13T13:33:54;19.90;99.90
64396;DHT22;50717;53.360;6.290;2023-05-13T13:36:20;20.30;99.90
64396;DHT22;50717;53.360;6.290;2023-05-13T13:38:45;20.30;99.90
64396;DHT22;50717;53.360;6.290;2023-05-13T13:41:11;20.40;99.90
64396;DHT22;50717;53.360;6.290;2023-05-13T13:43:37;18.10;99.90
64396;DHT22;50717;53.360;6.290;2023-05-13T13:46:03;20.20;99.90
64396;DHT22;50717;53.360;6.290;2023-05-13T13:48:28;20.30;99.90
64396;DHT22;50717;53.360;6.290;2023-05-13T13:50:54;20.30;99.90
64396;DHT22;50717;53.360;6.290;2023-05-13T13:53:20;20.00;99.90
64396;DHT22;50717;53.360;6.290;2023-05-13T13:55:46;20.30;99.90
64396;DHT22;50717;53.360;6.290;2023-05-13T13:58:12;20.50;99.90
64396;DHT22;50717;53.360;6.290;2023-05-13T14:00:38;20.50;99.90
64396;DHT22;50717;53.360;6.290;2023-05-13T14:03:04;20.60;99.90
64396;DHT22;50717;53.360;6.290;2023-05-13T14:05:30;20.90;99.90
64396;DHT22;50717;53.360;6.290;2023-05-13T14:07:55;20.80;99.90
64396;DHT22;50717;53.360;6.290;2023-05-13T14:10:21;20.80;99.90
64396;DHT22;50717;53.360;6.290;2023-05-13T14:12:47;20.50;99.90
64396;DHT22;50717;53.360;6.290;2023-05-13T14:15:13;20.90;99.90
64396;DHT22;50717;53.360;6.290;2023-05-13T14:17:38;21.10;99.90
64396;DHT22;50717;53.360;6.290;2023-05-13T14:20:05;20.80;99.90
64396;DHT22;50717;53.360;6.290;2023-05-13T14:22:31;21.00;99.90
64396;DHT22;50717;53.360;6.290;2023-05-13T14:24:58;21.30;99.90
64396;DHT22;50717;53.360;6.290;2023-05-13T14:27:23;21.10;99.90
64396;DHT22;50717;53.360;6.290;2023-05-13T14:29:49;21.80;99.90
64396;DHT22;50717;53.360;6.290;2023-05-13T14:32:15;21.50;99.90
64396;DHT22;50717;53.360;6.290;2023-05-13T14:34:41;21.50;99.90
64396;DHT22;50717;53.360;6.290;2023-05-13T14:37:07;21.70;99.90
64396;DHT22;50717;53.360;6.290;2023-05-13T14:39:33;21.80;99.90
64396;DHT22;50717;53.360;6.290;2023-05-13T14:41:59;21.60;99.90
64396;DHT22;50717;53.360;6.290;2023-05-13T14:44:24;21.40;99.90
64396;DHT22;50717;53.360;6.290;2023-05-13T14:46:50;21.90;99.90
64396;DHT22;50717;53.360;6.290;2023-05-13T14:49:16;21.60;99.90
64396;DHT22;50717;53.360;6.290;2023-05-13T14:51:42;22.10;99.90
64396;DHT22;50717;53.360;6.290;2023-05-13T14:54:08;22.00;99.90
64396;DHT22;50717;53.360;6.290;2023-05-13T14:56:34;22.00;99.90
64396;DHT22;50717;53.360;6.290;2023-05-13T14:59:00;22.20;99.90
64396;DHT22;50717;53.360;6.290;2023-05-13T15:01:27;22.20;99.90
64396;DHT22;50717;53.360;6.290;2023-05-13T15:03:52;22.10;99.90
64396;DHT22;50717;53.360;6.290;2023-05-13T15:06:18;22.20;99.90
64396;DHT22;50717;53.360;6.290;2023-05-13T15:08:44;23.00;99.90
64396;DHT22;50717;53.360;6.290;2023-05-13T15:11:10;22.60;99.90
64396;DHT22;50717;53.360;6.290;2023-05-13T15:13:35;22.80;99.90
64396;DHT22;50717;53.360;6.290;2023-05-13T15:16:04;22.60;99.90
64396;DHT22;50717;53.360;6.290;2023-05-13T15:18:31;22.30;99.90
64396;DHT22;50717;53.360;6.290;2023-05-13T15:20:56;22.50;99.90
64396;DHT22;50717;53.360;6.290;2023-05-13T15:23:22;22.70;99.90
64396;DHT22;50717;53.360;6.290;2023-05-13T15:25:48;22.50;99.90
64396;DHT22;50717;53.360;6.290;2023-05-13T15:28:14;22.70;99.90
64396;DHT22;50717;53.360;6.290;2023-05-13T15:30:40;22.60;99.90
64396;DHT22;50717;53.360;6.290;2023-05-13T15:33:07;21.90;99.90
64396;DHT22;50717;53.360;6.290;2023-05-13T15:35:33;22.00;99.90
64396;DHT22;50717;53.360;6.290;2023-05-13T15:37:59;22.30;99.90
64396;DHT22;50717;53.360;6.290;2023-05-13T15:40:24;22.10;99.90
64396;DHT22;50717;53.360;6.290;2023-05-13T15:42:50;22.00;99.90
64396;DHT22;50717;53.360;6.290;2023-05-13T15:45:16;21.80;99.90